Aérodrome :
LOGIN :

S'inscrire | Disclaimer

   EN    FR    IT 

 










Légende :    VFR   VFR Marginal   IFR   IFR Intensif   IFR Très Intensif
Visi : 
Plafond : 
>= 8 km
>= 3000ft
5 à 8 km
1000 à 3000 ft
1500m à 5 km
500 à 1000 ft
800 à 1500m
200 à 500 ft
< 800m
< 200 ft
Symboles :   Orages  Brouillard  Fortes neiges  Fortes précipitations  Vent > 20 kt
SIGMETs :   Divers  Orages  Givrage  Turbulence  Onde Orograph.  Cendres Volcan.







- Altitude de l'aérodrome : 359 ft
- Code IATA : BVA
- Voir les cartes d'approche


LFOB - Beauvais

DERNIER METAR :
  • 221030Z AUTO 16004KT 2200 -SN BR OVC006 00/M00 Q1006 BECMG 4000 BR

METARs EXPIRÉS :
  • 221000Z AUTO 15003KT 1500 1200 R30/1800N R12/1700D -SN BR OVC006 M00/M01 Q1006 BECMG 4000 BR
  • 220930Z AUTO 18006KT 2500 -SN BR OVC007 M00/M01 Q1006 BECMG 4000 BR
  • 220900Z AUTO 18007KT 2700 -SN BR BKN007 OVC015 M00/M01 Q1006 TEMPO OVC002 BECMG 4000 BR
  • 220830Z AUTO 17007KT 1700 1300 R30/1900D R12/P2000 -SN BR BKN005 BKN009 OVC013 M01/M01 Q1007 BECMG 4000 BR
  • 220800Z AUTO 14007KT 1500 1300 R30/1900D R12/1800D +SN BR OVC004 M01/M02 Q1007 NOSIG

TAF AMD TAF LFOB
Valide du 22 à 10h jusqu'au 23 à 06h UTC


221019Z 2210/2306 17006KT 2500 SN BR OVC006
TEMPO 2210/2211 1200 OVC003
BECMG 2211/2213 6000 NSW
TEMPO 2221/2224 1500 SHSN BKN003 BKN030TCU
BECMG 2300/2303 VRB02KT
ATIS : +33 3 44 11 49 28
Pas de NOTAMs connus pour ce terrain.



MET'MAP, la Météo Aéronautique d'un coup d'oeil ! - Copyright ORBIFLY Décembre 2007 - Disclaimer

ORBIFLY MET'MAP TEAM :

Programmation & Développement : Alexandra Zaïnal
Conception & Développement : Baudouin d'Aumeries
Co-Programmation & Développement : Marc-Olivier Méhu
Soutien technique & logistique : Manuel Goepfert

Contact : metmap@orbifly.com




SOURCES & CREDITS :

   NOAA